sensor_id;sensor_type;location;lat;lon;timestamp;temperature;humidity
76293;DHT22;67256;51.154;4.164;2023-03-16T00:01:18;10.10;58.70
76293;DHT22;67256;51.154;4.164;2023-03-16T00:03:44;10.00;58.80
76293;DHT22;67256;51.154;4.164;2023-03-16T00:06:10;10.10;58.90
76293;DHT22;67256;51.154;4.164;2023-03-16T00:08:35;10.10;58.90
76293;DHT22;67256;51.154;4.164;2023-03-16T00:11:03;10.10;59.00
76293;DHT22;67256;51.154;4.164;2023-03-16T00:13:29;10.20;58.90
76293;DHT22;67256;51.154;4.164;2023-03-16T00:15:57;10.10;59.00
76293;DHT22;67256;51.154;4.164;2023-03-16T00:18:26;10.10;59.00
76293;DHT22;67256;51.154;4.164;2023-03-16T00:21:00;10.10;59.00
76293;DHT22;67256;51.154;4.164;2023-03-16T00:23:28;10.20;59.10
76293;DHT22;67256;51.154;4.164;2023-03-16T00:25:58;10.10;59.20
76293;DHT22;67256;51.154;4.164;2023-03-16T00:28:25;10.00;60.10
76293;DHT22;67256;51.154;4.164;2023-03-16T00:30:51;10.00;60.00
76293;DHT22;67256;51.154;4.164;2023-03-16T00:33:17;10.00;60.30
76293;DHT22;67256;51.154;4.164;2023-03-16T00:35:47;10.00;60.50
76293;DHT22;67256;51.154;4.164;2023-03-16T00:38:17;10.00;60.70
76293;DHT22;67256;51.154;4.164;2023-03-16T00:40:44;10.00;60.90
76293;DHT22;67256;51.154;4.164;2023-03-16T00:43:09;10.00;61.30
76293;DHT22;67256;51.154;4.164;2023-03-16T00:45:35;10.10;61.60
76293;DHT22;67256;51.154;4.164;2023-03-16T00:48:01;10.10;61.50
76293;DHT22;67256;51.154;4.164;2023-03-16T00:50:27;10.10;61.70
76293;DHT22;67256;51.154;4.164;2023-03-16T00:52:53;10.10;62.10
76293;DHT22;67256;51.154;4.164;2023-03-16T00:55:20;10.10;62.00
76293;DHT22;67256;51.154;4.164;2023-03-16T00:57:46;10.10;62.30
76293;DHT22;67256;51.154;4.164;2023-03-16T01:00:13;10.00;62.50
76293;DHT22;67256;51.154;4.164;2023-03-16T01:02:42;10.00;62.50
76293;DHT22;67256;51.154;4.164;2023-03-16T01:05:10;10.00;62.80
76293;DHT22;67256;51.154;4.164;2023-03-16T01:07:37;10.00;62.70
76293;DHT22;67256;51.154;4.164;2023-03-16T01:10:04;10.00;62.50
76293;DHT22;67256;51.154;4.164;2023-03-16T01:12:30;10.00;62.50
76293;DHT22;67256;51.154;4.164;2023-03-16T01:14:56;10.10;62.60
76293;DHT22;67256;51.154;4.164;2023-03-16T01:17:22;10.10;62.60
76293;DHT22;67256;51.154;4.164;2023-03-16T01:19:48;10.00;62.70
76293;DHT22;67256;51.154;4.164;2023-03-16T01:22:14;10.00;62.90
76293;DHT22;67256;51.154;4.164;2023-03-16T01:24:41;10.00;62.80
76293;DHT22;67256;51.154;4.164;2023-03-16T01:27:10;10.00;63.10
76293;DHT22;67256;51.154;4.164;2023-03-16T01:29:37;10.00;63.00
76293;DHT22;67256;51.154;4.164;2023-03-16T01:32:05;10.00;63.10
76293;DHT22;67256;51.154;4.164;2023-03-16T01:34:32;10.00;63.20
76293;DHT22;67256;51.154;4.164;2023-03-16T01:36:59;10.00;63.50
76293;DHT22;67256;51.154;4.164;2023-03-16T01:39:26;10.00;63.50
76293;DHT22;67256;51.154;4.164;2023-03-16T01:41:51;10.00;63.30
76293;DHT22;67256;51.154;4.164;2023-03-16T01:44:21;10.00;63.60
76293;DHT22;67256;51.154;4.164;2023-03-16T01:46:49;10.00;63.50
76293;DHT22;67256;51.154;4.164;2023-03-16T01:49:26;10.00;63.60
76293;DHT22;67256;51.154;4.164;2023-03-16T01:51:59;10.10;63.60
76293;DHT22;67256;51.154;4.164;2023-03-16T01:54:27;10.10;63.60
76293;DHT22;67256;51.154;4.164;2023-03-16T01:59:42;10.00;63.70
76293;DHT22;67256;51.154;4.164;2023-03-16T02:02:10;10.00;63.90
76293;DHT22;67256;51.154;4.164;2023-03-16T02:07:24;10.00;64.30
76293;DHT22;67256;51.154;4.164;2023-03-16T02:09:53;10.00;64.60
76293;DHT22;67256;51.154;4.164;2023-03-16T02:12:20;10.00;64.70
76293;DHT22;67256;51.154;4.164;2023-03-16T02:14:49;10.00;64.80
76293;DHT22;67256;51.154;4.164;2023-03-16T02:17:21;10.00;64.90
76293;DHT22;67256;51.154;4.164;2023-03-16T02:22:34;10.00;65.00
76293;DHT22;67256;51.154;4.164;2023-03-16T02:25:00;10.00;65.20
76293;DHT22;67256;51.154;4.164;2023-03-16T02:30:19;10.00;65.40
76293;DHT22;67256;51.154;4.164;2023-03-16T02:32:48;10.10;65.30
76293;DHT22;67256;51.154;4.164;2023-03-16T02:35:17;10.00;65.60
76293;DHT22;67256;51.154;4.164;2023-03-16T02:37:43;10.00;65.80
76293;DHT22;67256;51.154;4.164;2023-03-16T02:40:29;10.10;65.60
76293;DHT22;67256;51.154;4.164;2023-03-16T02:45:35;10.00;65.90
76293;DHT22;67256;51.154;4.164;2023-03-16T02:48:08;10.00;66.20
76293;DHT22;67256;51.154;4.164;2023-03-16T02:50:46;10.00;66.20
76293;DHT22;67256;51.154;4.164;2023-03-16T02:53:13;9.90;66.60
76293;DHT22;67256;51.154;4.164;2023-03-16T02:55:39;9.80;67.30
76293;DHT22;67256;51.154;4.164;2023-03-16T02:58:06;9.80;67.00
76293;DHT22;67256;51.154;4.164;2023-03-16T03:00:32;9.90;67.00
76293;DHT22;67256;51.154;4.164;2023-03-16T03:02:57;9.80;67.20
76293;DHT22;67256;51.154;4.164;2023-03-16T03:05:23;9.90;67.10
76293;DHT22;67256;51.154;4.164;2023-03-16T03:07:49;9.90;67.00
76293;DHT22;67256;51.154;4.164;2023-03-16T03:10:15;10.00;66.90
76293;DHT22;67256;51.154;4.164;2023-03-16T03:12:41;9.80;67.30
76293;DHT22;67256;51.154;4.164;2023-03-16T03:15:08;9.80;67.50
76293;DHT22;67256;51.154;4.164;2023-03-16T03:17:33;9.80;67.50
76293;DHT22;67256;51.154;4.164;2023-03-16T03:20:00;9.90;67.90
76293;DHT22;67256;51.154;4.164;2023-03-16T03:22:41;9.90;67.70
76293;DHT22;67256;51.154;4.164;2023-03-16T03:25:10;9.90;67.80
76293;DHT22;67256;51.154;4.164;2023-03-16T03:27:36;9.80;67.90
76293;DHT22;67256;51.154;4.164;2023-03-16T03:30:03;9.80;68.00
76293;DHT22;67256;51.154;4.164;2023-03-16T03:32:29;9.80;67.90
76293;DHT22;67256;51.154;4.164;2023-03-16T03:34:55;9.70;68.30
76293;DHT22;67256;51.154;4.164;2023-03-16T03:37:22;9.60;68.60
76293;DHT22;67256;51.154;4.164;2023-03-16T03:39:48;9.70;68.10
76293;DHT22;67256;51.154;4.164;2023-03-16T03:42:14;9.70;67.90
76293;DHT22;67256;51.154;4.164;2023-03-16T03:44:40;9.70;68.20
76293;DHT22;67256;51.154;4.164;2023-03-16T03:47:05;9.80;67.90
76293;DHT22;67256;51.154;4.164;2023-03-16T03:49:31;9.60;68.40
76293;DHT22;67256;51.154;4.164;2023-03-16T03:51:57;9.70;68.00
76293;DHT22;67256;51.154;4.164;2023-03-16T03:54:24;9.50;68.40
76293;DHT22;67256;51.154;4.164;2023-03-16T03:56:50;9.50;69.20
76293;DHT22;67256;51.154;4.164;2023-03-16T03:59:16;9.50;69.10
76293;DHT22;67256;51.154;4.164;2023-03-16T04:01:42;9.60;68.70
76293;DHT22;67256;51.154;4.164;2023-03-16T04:04:08;9.60;68.60
76293;DHT22;67256;51.154;4.164;2023-03-16T04:06:34;9.60;68.70
76293;DHT22;67256;51.154;4.164;2023-03-16T04:09:00;9.50;68.70
76293;DHT22;67256;51.154;4.164;2023-03-16T04:11:25;9.40;68.60
76293;DHT22;67256;51.154;4.164;2023-03-16T04:13:51;9.50;68.80
76293;DHT22;67256;51.154;4.164;2023-03-16T04:16:18;9.50;68.60
76293;DHT22;67256;51.154;4.164;2023-03-16T04:18:45;9.50;68.10
76293;DHT22;67256;51.154;4.164;2023-03-16T04:21:14;9.50;68.00
76293;DHT22;67256;51.154;4.164;2023-03-16T04:23:41;9.60;67.40
76293;DHT22;67256;51.154;4.164;2023-03-16T04:26:07;9.50;67.50
76293;DHT22;67256;51.154;4.164;2023-03-16T04:28:32;9.60;67.20
76293;DHT22;67256;51.154;4.164;2023-03-16T04:31:02;9.70;66.90
76293;DHT22;67256;51.154;4.164;2023-03-16T04:33:30;9.80;66.70
76293;DHT22;67256;51.154;4.164;2023-03-16T04:35:57;9.80;66.80
76293;DHT22;67256;51.154;4.164;2023-03-16T04:38:23;9.80;66.60
76293;DHT22;67256;51.154;4.164;2023-03-16T04:40:48;9.80;66.40
76293;DHT22;67256;51.154;4.164;2023-03-16T04:43:14;9.70;66.70
76293;DHT22;67256;51.154;4.164;2023-03-16T04:45:40;9.70;67.20
76293;DHT22;67256;51.154;4.164;2023-03-16T04:48:06;9.70;66.60
76293;DHT22;67256;51.154;4.164;2023-03-16T04:50:32;9.80;66.70
76293;DHT22;67256;51.154;4.164;2023-03-16T04:52:57;9.80;66.20
76293;DHT22;67256;51.154;4.164;2023-03-16T04:55:23;9.70;66.00
76293;DHT22;67256;51.154;4.164;2023-03-16T04:57:50;9.60;66.20
76293;DHT22;67256;51.154;4.164;2023-03-16T05:00:18;9.80;66.00
76293;DHT22;67256;51.154;4.164;2023-03-16T05:02:46;9.80;65.60
76293;DHT22;67256;51.154;4.164;2023-03-16T05:05:12;9.80;65.70
76293;DHT22;67256;51.154;4.164;2023-03-16T05:07:38;9.60;65.90
76293;DHT22;67256;51.154;4.164;2023-03-16T05:10:10;9.70;65.90
76293;DHT22;67256;51.154;4.164;2023-03-16T05:12:36;9.70;66.30
76293;DHT22;67256;51.154;4.164;2023-03-16T05:15:03;9.70;65.60
76293;DHT22;67256;51.154;4.164;2023-03-16T05:17:29;9.60;65.60
76293;DHT22;67256;51.154;4.164;2023-03-16T05:19:54;9.70;65.30
76293;DHT22;67256;51.154;4.164;2023-03-16T05:22:20;9.80;64.80
76293;DHT22;67256;51.154;4.164;2023-03-16T05:24:46;9.70;65.00
76293;DHT22;67256;51.154;4.164;2023-03-16T05:27:11;9.80;64.80
76293;DHT22;67256;51.154;4.164;2023-03-16T05:29:37;9.80;64.60
76293;DHT22;67256;51.154;4.164;2023-03-16T05:32:03;9.80;64.20
76293;DHT22;67256;51.154;4.164;2023-03-16T05:34:31;9.80;64.30
76293;DHT22;67256;51.154;4.164;2023-03-16T05:36:57;9.80;64.10
76293;DHT22;67256;51.154;4.164;2023-03-16T05:39:23;9.80;64.00
76293;DHT22;67256;51.154;4.164;2023-03-16T05:41:49;9.70;63.80
76293;DHT22;67256;51.154;4.164;2023-03-16T05:44:14;9.70;64.40
76293;DHT22;67256;51.154;4.164;2023-03-16T05:46:40;9.60;64.40
76293;DHT22;67256;51.154;4.164;2023-03-16T05:49:06;9.60;64.50
76293;DHT22;67256;51.154;4.164;2023-03-16T05:51:31;9.60;64.40
76293;DHT22;67256;51.154;4.164;2023-03-16T05:53:57;9.60;64.40
76293;DHT22;67256;51.154;4.164;2023-03-16T05:56:25;9.60;63.80
76293;DHT22;67256;51.154;4.164;2023-03-16T05:58:52;9.80;63.20
76293;DHT22;67256;51.154;4.164;2023-03-16T06:01:19;9.50;63.50
76293;DHT22;67256;51.154;4.164;2023-03-16T06:03:46;9.50;63.90
76293;DHT22;67256;51.154;4.164;2023-03-16T06:06:12;9.60;63.10
76293;DHT22;67256;51.154;4.164;2023-03-16T06:08:37;9.40;63.80
76293;DHT22;67256;51.154;4.164;2023-03-16T06:11:03;9.50;64.10
76293;DHT22;67256;51.154;4.164;2023-03-16T06:13:29;9.60;63.60
76293;DHT22;67256;51.154;4.164;2023-03-16T06:15:55;9.70;62.90
76293;DHT22;67256;51.154;4.164;2023-03-16T06:18:21;9.80;62.30
76293;DHT22;67256;51.154;4.164;2023-03-16T06:20:47;9.80;62.50
76293;DHT22;67256;51.154;4.164;2023-03-16T06:23:12;9.70;62.50
76293;DHT22;67256;51.154;4.164;2023-03-16T06:25:38;9.80;62.50
76293;DHT22;67256;51.154;4.164;2023-03-16T06:28:05;9.80;62.20
76293;DHT22;67256;51.154;4.164;2023-03-16T06:30:31;9.80;62.20
76293;DHT22;67256;51.154;4.164;2023-03-16T06:32:57;9.90;62.00
76293;DHT22;67256;51.154;4.164;2023-03-16T06:35:24;9.90;61.60
76293;DHT22;67256;51.154;4.164;2023-03-16T06:37:50;9.90;61.40
76293;DHT22;67256;51.154;4.164;2023-03-16T06:40:16;9.90;61.10
76293;DHT22;67256;51.154;4.164;2023-03-16T06:42:42;10.00;61.30
76293;DHT22;67256;51.154;4.164;2023-03-16T06:45:09;10.10;61.10
76293;DHT22;67256;51.154;4.164;2023-03-16T06:47:35;10.10;60.80
76293;DHT22;67256;51.154;4.164;2023-03-16T06:50:02;10.00;61.00
76293;DHT22;67256;51.154;4.164;2023-03-16T06:52:29;10.10;60.80
76293;DHT22;67256;51.154;4.164;2023-03-16T06:54:55;10.10;60.70
76293;DHT22;67256;51.154;4.164;2023-03-16T06:57:23;10.00;60.50
76293;DHT22;67256;51.154;4.164;2023-03-16T06:59:50;10.10;60.40
76293;DHT22;67256;51.154;4.164;2023-03-16T07:02:16;10.10;60.30
76293;DHT22;67256;51.154;4.164;2023-03-16T07:04:42;10.20;59.90
76293;DHT22;67256;51.154;4.164;2023-03-16T07:07:08;10.20;59.90
76293;DHT22;67256;51.154;4.164;2023-03-16T07:09:34;10.20;59.70
76293;DHT22;67256;51.154;4.164;2023-03-16T07:12:00;10.20;59.60
76293;DHT22;67256;51.154;4.164;2023-03-16T07:14:26;10.30;59.80
76293;DHT22;67256;51.154;4.164;2023-03-16T07:16:51;10.20;59.90
76293;DHT22;67256;51.154;4.164;2023-03-16T07:19:18;10.20;60.00
76293;DHT22;67256;51.154;4.164;2023-03-16T07:21:44;10.20;60.00
76293;DHT22;67256;51.154;4.164;2023-03-16T07:24:10;10.20;60.00
76293;DHT22;67256;51.154;4.164;2023-03-16T07:26:37;10.30;59.70
76293;DHT22;67256;51.154;4.164;2023-03-16T07:29:03;10.30;59.40
76293;DHT22;67256;51.154;4.164;2023-03-16T07:31:31;10.30;59.40
76293;DHT22;67256;51.154;4.164;2023-03-16T07:33:57;10.30;59.50
76293;DHT22;67256;51.154;4.164;2023-03-16T07:36:24;10.30;59.40
76293;DHT22;67256;51.154;4.164;2023-03-16T07:38:50;10.20;59.50
76293;DHT22;67256;51.154;4.164;2023-03-16T07:41:16;10.40;59.50
76293;DHT22;67256;51.154;4.164;2023-03-16T07:43:42;10.50;59.10
76293;DHT22;67256;51.154;4.164;2023-03-16T07:46:11;10.60;58.80
76293;DHT22;67256;51.154;4.164;2023-03-16T07:48:39;10.70;58.50
76293;DHT22;67256;51.154;4.164;2023-03-16T07:51:05;10.80;58.10
76293;DHT22;67256;51.154;4.164;2023-03-16T07:53:31;10.80;57.70
76293;DHT22;67256;51.154;4.164;2023-03-16T07:55:56;10.70;57.80
76293;DHT22;67256;51.154;4.164;2023-03-16T07:58:22;10.80;58.20
76293;DHT22;67256;51.154;4.164;2023-03-16T08:00:48;10.80;57.60
76293;DHT22;67256;51.154;4.164;2023-03-16T08:03:14;10.70;57.20
76293;DHT22;67256;51.154;4.164;2023-03-16T08:05:40;10.70;57.40
76293;DHT22;67256;51.154;4.164;2023-03-16T08:08:06;10.70;57.30
76293;DHT22;67256;51.154;4.164;2023-03-16T08:10:34;10.70;57.30
76293;DHT22;67256;51.154;4.164;2023-03-16T08:13:01;10.60;57.40
76293;DHT22;67256;51.154;4.164;2023-03-16T08:15:29;10.60;57.00
76293;DHT22;67256;51.154;4.164;2023-03-16T08:17:58;10.60;57.50
76293;DHT22;67256;51.154;4.164;2023-03-16T08:20:28;10.70;57.70
76293;DHT22;67256;51.154;4.164;2023-03-16T08:22:54;10.70;57.30
76293;DHT22;67256;51.154;4.164;2023-03-16T08:25:20;10.70;57.00
76293;DHT22;67256;51.154;4.164;2023-03-16T08:27:46;10.60;56.50
76293;DHT22;67256;51.154;4.164;2023-03-16T08:30:14;10.70;56.90
76293;DHT22;67256;51.154;4.164;2023-03-16T08:32:41;10.70;56.60
76293;DHT22;67256;51.154;4.164;2023-03-16T08:35:09;10.80;56.60
76293;DHT22;67256;51.154;4.164;2023-03-16T08:37:38;11.00;56.70
76293;DHT22;67256;51.154;4.164;2023-03-16T08:40:04;11.00;56.10
76293;DHT22;67256;51.154;4.164;2023-03-16T08:42:40;11.10;56.80
76293;DHT22;67256;51.154;4.164;2023-03-16T08:45:08;11.10;55.20
76293;DHT22;67256;51.154;4.164;2023-03-16T08:47:38;11.10;55.80
76293;DHT22;67256;51.154;4.164;2023-03-16T08:50:06;11.20;55.20
76293;DHT22;67256;51.154;4.164;2023-03-16T08:52:33;11.20;55.70
76293;DHT22;67256;51.154;4.164;2023-03-16T08:55:01;11.40;54.90
76293;DHT22;67256;51.154;4.164;2023-03-16T08:57:30;11.40;53.90
76293;DHT22;67256;51.154;4.164;2023-03-16T08:59:57;11.50;54.70
76293;DHT22;67256;51.154;4.164;2023-03-16T09:02:23;11.50;53.80
76293;DHT22;67256;51.154;4.164;2023-03-16T09:04:50;11.50;54.20
76293;DHT22;67256;51.154;4.164;2023-03-16T09:07:17;11.50;53.20
76293;DHT22;67256;51.154;4.164;2023-03-16T09:09:43;11.60;54.50
76293;DHT22;67256;51.154;4.164;2023-03-16T09:12:09;11.70;54.10
76293;DHT22;67256;51.154;4.164;2023-03-16T09:14:37;11.60;53.60
76293;DHT22;67256;51.154;4.164;2023-03-16T09:17:04;11.70;53.20
76293;DHT22;67256;51.154;4.164;2023-03-16T09:19:32;11.80;53.20
76293;DHT22;67256;51.154;4.164;2023-03-16T09:21:59;11.80;53.20
76293;DHT22;67256;51.154;4.164;2023-03-16T09:24:25;11.70;53.10
76293;DHT22;67256;51.154;4.164;2023-03-16T09:26:51;11.70;52.40
76293;DHT22;67256;51.154;4.164;2023-03-16T09:29:16;11.80;52.90
76293;DHT22;67256;51.154;4.164;2023-03-16T09:31:43;11.90;52.40
76293;DHT22;67256;51.154;4.164;2023-03-16T09:34:10;11.90;52.40
76293;DHT22;67256;51.154;4.164;2023-03-16T09:36:36;11.80;52.70
76293;DHT22;67256;51.154;4.164;2023-03-16T09:39:02;12.00;52.80
76293;DHT22;67256;51.154;4.164;2023-03-16T09:44:25;11.80;53.20
76293;DHT22;67256;51.154;4.164;2023-03-16T09:46:57;12.00;53.20
76293;DHT22;67256;51.154;4.164;2023-03-16T09:49:27;12.10;53.40
76293;DHT22;67256;51.154;4.164;2023-03-16T09:52:17;12.00;52.10
76293;DHT22;67256;51.154;4.164;2023-03-16T09:54:57;12.10;52.90
76293;DHT22;67256;51.154;4.164;2023-03-16T09:57:30;12.10;52.40
76293;DHT22;67256;51.154;4.164;2023-03-16T10:00:23;12.10;52.30
76293;DHT22;67256;51.154;4.164;2023-03-16T10:03:16;12.10;52.50
76293;DHT22;67256;51.154;4.164;2023-03-16T10:05:51;12.20;53.00
76293;DHT22;67256;51.154;4.164;2023-03-16T10:08:24;12.10;51.60
76293;DHT22;67256;51.154;4.164;2023-03-16T10:13:55;12.20;51.30
76293;DHT22;67256;51.154;4.164;2023-03-16T10:19:10;12.30;51.30
76293;DHT22;67256;51.154;4.164;2023-03-16T10:21:39;12.40;51.20
76293;DHT22;67256;51.154;4.164;2023-03-16T10:24:20;12.40;50.30
76293;DHT22;67256;51.154;4.164;2023-03-16T10:26:54;12.40;49.80
76293;DHT22;67256;51.154;4.164;2023-03-16T10:29:20;12.60;50.30
76293;DHT22;67256;51.154;4.164;2023-03-16T10:31:46;12.70;50.20
76293;DHT22;67256;51.154;4.164;2023-03-16T10:34:13;12.70;49.50
76293;DHT22;67256;51.154;4.164;2023-03-16T10:36:43;12.70;48.40
76293;DHT22;67256;51.154;4.164;2023-03-16T10:39:13;12.80;48.40
76293;DHT22;67256;51.154;4.164;2023-03-16T10:41:46;12.80;48.80
76293;DHT22;67256;51.154;4.164;2023-03-16T10:44:30;12.90;48.80
76293;DHT22;67256;51.154;4.164;2023-03-16T10:47:02;12.90;48.10
76293;DHT22;67256;51.154;4.164;2023-03-16T10:52:10;12.90;48.00
76293;DHT22;67256;51.154;4.164;2023-03-16T10:54:39;12.80;47.40
76293;DHT22;67256;51.154;4.164;2023-03-16T10:57:24;12.90;46.00
76293;DHT22;67256;51.154;4.164;2023-03-16T10:59:53;12.90;47.50
76293;DHT22;67256;51.154;4.164;2023-03-16T11:02:24;12.80;47.90
76293;DHT22;67256;51.154;4.164;2023-03-16T11:04:54;12.80;47.80
76293;DHT22;67256;51.154;4.164;2023-03-16T11:07:22;12.80;48.60
76293;DHT22;67256;51.154;4.164;2023-03-16T11:09:50;12.90;47.80
76293;DHT22;67256;51.154;4.164;2023-03-16T11:12:30;13.00;48.20
76293;DHT22;67256;51.154;4.164;2023-03-16T11:15:11;13.00;48.00
76293;DHT22;67256;51.154;4.164;2023-03-16T11:17:44;13.10;48.40
76293;DHT22;67256;51.154;4.164;2023-03-16T11:20:28;13.10;47.60
76293;DHT22;67256;51.154;4.164;2023-03-16T11:22:58;13.00;48.40
76293;DHT22;67256;51.154;4.164;2023-03-16T11:25:35;13.00;48.00
76293;DHT22;67256;51.154;4.164;2023-03-16T11:28:08;12.90;47.30
76293;DHT22;67256;51.154;4.164;2023-03-16T11:33:10;12.80;47.20
76293;DHT22;67256;51.154;4.164;2023-03-16T11:38:49;12.80;47.60
76293;DHT22;67256;51.154;4.164;2023-03-16T11:44:31;12.70;46.90
76293;DHT22;67256;51.154;4.164;2023-03-16T11:56:04;12.90;48.10
76293;DHT22;67256;51.154;4.164;2023-03-16T12:09:47;12.80;48.00
76293;DHT22;67256;51.154;4.164;2023-03-16T12:17:35;12.90;47.60
76293;DHT22;67256;51.154;4.164;2023-03-16T12:20:33;12.90;48.30
76293;DHT22;67256;51.154;4.164;2023-03-16T12:23:09;13.10;49.30
76293;DHT22;67256;51.154;4.164;2023-03-16T12:25:40;13.00;47.20
76293;DHT22;67256;51.154;4.164;2023-03-16T12:28:21;13.00;46.60
76293;DHT22;67256;51.154;4.164;2023-03-16T12:39:23;13.20;47.40
76293;DHT22;67256;51.154;4.164;2023-03-16T12:49:45;13.40;47.40
76293;DHT22;67256;51.154;4.164;2023-03-16T12:52:12;13.40;46.90
76293;DHT22;67256;51.154;4.164;2023-03-16T12:55:07;13.40;46.50
76293;DHT22;67256;51.154;4.164;2023-03-16T12:57:39;13.40;47.30
76293;DHT22;67256;51.154;4.164;2023-03-16T13:00:06;13.30;46.20
76293;DHT22;67256;51.154;4.164;2023-03-16T13:02:36;13.40;45.90
76293;DHT22;67256;51.154;4.164;2023-03-16T13:05:13;13.50;46.20
76293;DHT22;67256;51.154;4.164;2023-03-16T13:07:48;13.50;46.00
76293;DHT22;67256;51.154;4.164;2023-03-16T13:10:16;13.50;45.30
76293;DHT22;67256;51.154;4.164;2023-03-16T13:12:43;13.60;45.60
76293;DHT22;67256;51.154;4.164;2023-03-16T13:17:48;13.60;45.10
76293;DHT22;67256;51.154;4.164;2023-03-16T13:20:25;13.60;45.40
76293;DHT22;67256;51.154;4.164;2023-03-16T13:28:44;13.80;44.00
76293;DHT22;67256;51.154;4.164;2023-03-16T13:31:35;13.70;43.20
76293;DHT22;67256;51.154;4.164;2023-03-16T13:34:02;13.70;44.60
76293;DHT22;67256;51.154;4.164;2023-03-16T13:36:31;13.80;44.80
76293;DHT22;67256;51.154;4.164;2023-03-16T13:39:19;13.90;43.60
76293;DHT22;67256;51.154;4.164;2023-03-16T13:42:02;13.90;44.20
76293;DHT22;67256;51.154;4.164;2023-03-16T13:44:30;13.90;43.60
76293;DHT22;67256;51.154;4.164;2023-03-16T13:47:01;14.00;43.30
76293;DHT22;67256;51.154;4.164;2023-03-16T13:49:27;14.00;43.80
76293;DHT22;67256;51.154;4.164;2023-03-16T13:51:53;14.00;43.90
76293;DHT22;67256;51.154;4.164;2023-03-16T13:54:27;14.10;43.30
76293;DHT22;67256;51.154;4.164;2023-03-16T13:56:58;14.10;43.70
76293;DHT22;67256;51.154;4.164;2023-03-16T13:59:26;14.10;43.30
76293;DHT22;67256;51.154;4.164;2023-03-16T14:01:59;14.10;43.20
76293;DHT22;67256;51.154;4.164;2023-03-16T14:04:31;14.10;43.40
76293;DHT22;67256;51.154;4.164;2023-03-16T14:06:59;14.20;43.80
76293;DHT22;67256;51.154;4.164;2023-03-16T14:09:29;14.10;43.60
76293;DHT22;67256;51.154;4.164;2023-03-16T14:11:56;14.10;44.00
76293;DHT22;67256;51.154;4.164;2023-03-16T14:14:28;14.30;44.60
76293;DHT22;67256;51.154;4.164;2023-03-16T14:17:07;14.40;44.30
76293;DHT22;67256;51.154;4.164;2023-03-16T14:19:49;14.50;43.70
76293;DHT22;67256;51.154;4.164;2023-03-16T14:22:18;14.50;42.80
76293;DHT22;67256;51.154;4.164;2023-03-16T14:24:45;14.40;41.80
76293;DHT22;67256;51.154;4.164;2023-03-16T14:27:19;14.50;45.70
76293;DHT22;67256;51.154;4.164;2023-03-16T14:29:52;14.70;44.30
76293;DHT22;67256;51.154;4.164;2023-03-16T14:32:22;14.70;42.80
76293;DHT22;67256;51.154;4.164;2023-03-16T14:34:52;14.70;43.10
76293;DHT22;67256;51.154;4.164;2023-03-16T14:37:18;14.70;43.00
76293;DHT22;67256;51.154;4.164;2023-03-16T14:40:00;14.80;43.70
76293;DHT22;67256;51.154;4.164;2023-03-16T14:42:29;14.70;42.20
76293;DHT22;67256;51.154;4.164;2023-03-16T14:44:56;14.60;42.50
76293;DHT22;67256;51.154;4.164;2023-03-16T14:47:26;14.70;43.60
76293;DHT22;67256;51.154;4.164;2023-03-16T14:49:52;14.90;43.90
76293;DHT22;67256;51.154;4.164;2023-03-16T14:52:25;14.90;43.30
76293;DHT22;67256;51.154;4.164;2023-03-16T14:54:56;14.90;41.30
76293;DHT22;67256;51.154;4.164;2023-03-16T14:57:24;14.80;41.70
76293;DHT22;67256;51.154;4.164;2023-03-16T14:59:52;14.80;42.60
76293;DHT22;67256;51.154;4.164;2023-03-16T15:04:49;15.00;41.50
76293;DHT22;67256;51.154;4.164;2023-03-16T15:07:28;15.00;42.60
76293;DHT22;67256;51.154;4.164;2023-03-16T15:10:02;14.90;41.30
76293;DHT22;67256;51.154;4.164;2023-03-16T15:12:31;15.00;42.30
76293;DHT22;67256;51.154;4.164;2023-03-16T15:14:59;15.10;42.50
76293;DHT22;67256;51.154;4.164;2023-03-16T15:17:41;15.10;42.10
76293;DHT22;67256;51.154;4.164;2023-03-16T15:20:14;15.10;43.20
76293;DHT22;67256;51.154;4.164;2023-03-16T15:22:41;15.10;42.40
76293;DHT22;67256;51.154;4.164;2023-03-16T15:27:48;15.10;42.00
76293;DHT22;67256;51.154;4.164;2023-03-16T15:30:23;15.10;42.70
76293;DHT22;67256;51.154;4.164;2023-03-16T15:32:50;15.20;42.60
76293;DHT22;67256;51.154;4.164;2023-03-16T15:35:16;15.10;42.20
76293;DHT22;67256;51.154;4.164;2023-03-16T15:37:43;15.00;41.10
76293;DHT22;67256;51.154;4.164;2023-03-16T15:42:44;15.00;42.70
76293;DHT22;67256;51.154;4.164;2023-03-16T15:45:12;15.00;41.90
76293;DHT22;67256;51.154;4.164;2023-03-16T15:47:38;15.10;43.20
76293;DHT22;67256;51.154;4.164;2023-03-16T15:50:06;15.10;43.20
76293;DHT22;67256;51.154;4.164;2023-03-16T15:52:35;15.10;42.60
76293;DHT22;67256;51.154;4.164;2023-03-16T15:55:02;15.10;41.40
76293;DHT22;67256;51.154;4.164;2023-03-16T15:57:32;15.10;42.70
76293;DHT22;67256;51.154;4.164;2023-03-16T15:59:58;15.00;42.30
76293;DHT22;67256;51.154;4.164;2023-03-16T16:02:25;14.90;42.00
76293;DHT22;67256;51.154;4.164;2023-03-16T16:04:52;15.00;43.10
76293;DHT22;67256;51.154;4.164;2023-03-16T16:07:19;15.00;42.10
76293;DHT22;67256;51.154;4.164;2023-03-16T16:09:45;14.90;41.40
76293;DHT22;67256;51.154;4.164;2023-03-16T16:12:11;15.00;43.20
76293;DHT22;67256;51.154;4.164;2023-03-16T16:14:38;15.00;44.00
76293;DHT22;67256;51.154;4.164;2023-03-16T16:17:10;14.90;43.10
76293;DHT22;67256;51.154;4.164;2023-03-16T16:19:36;14.90;43.80
76293;DHT22;67256;51.154;4.164;2023-03-16T16:22:02;14.80;42.80
76293;DHT22;67256;51.154;4.164;2023-03-16T16:24:28;14.80;42.50
76293;DHT22;67256;51.154;4.164;2023-03-16T16:26:54;14.80;42.50
76293;DHT22;67256;51.154;4.164;2023-03-16T16:29:22;14.80;42.10
76293;DHT22;67256;51.154;4.164;2023-03-16T16:31:48;14.70;42.20
76293;DHT22;67256;51.154;4.164;2023-03-16T16:34:17;14.70;42.40
76293;DHT22;67256;51.154;4.164;2023-03-16T16:36:46;14.70;41.20
76293;DHT22;67256;51.154;4.164;2023-03-16T16:39:12;14.70;42.10
76293;DHT22;67256;51.154;4.164;2023-03-16T16:41:39;14.70;42.60
76293;DHT22;67256;51.154;4.164;2023-03-16T16:44:18;14.70;43.10
76293;DHT22;67256;51.154;4.164;2023-03-16T16:46:45;14.70;43.40
76293;DHT22;67256;51.154;4.164;2023-03-16T16:49:24;14.70;42.80
76293;DHT22;67256;51.154;4.164;2023-03-16T16:51:51;14.70;42.30
76293;DHT22;67256;51.154;4.164;2023-03-16T16:54:20;14.70;42.90
76293;DHT22;67256;51.154;4.164;2023-03-16T16:56:54;14.70;43.10
76293;DHT22;67256;51.154;4.164;2023-03-16T16:59:23;14.60;43.00
76293;DHT22;67256;51.154;4.164;2023-03-16T17:01:50;14.50;42.80
76293;DHT22;67256;51.154;4.164;2023-03-16T17:04:21;14.50;43.10
76293;DHT22;67256;51.154;4.164;2023-03-16T17:06:48;14.50;43.60
76293;DHT22;67256;51.154;4.164;2023-03-16T17:09:16;14.50;43.30
76293;DHT22;67256;51.154;4.164;2023-03-16T17:11:43;14.60;43.30
76293;DHT22;67256;51.154;4.164;2023-03-16T17:14:15;14.50;43.00
76293;DHT22;67256;51.154;4.164;2023-03-16T17:16:41;14.40;43.20